Date,TemperatureHighF,TemperatureAvgF,TemperatureLowF,DewpointHighF,DewpointAvgF,DewpointLowF,HumidityHigh,HumidityAvg,HumidityLow,PressureMaxIn,PressureMinIn,WindSpeedMaxMPH,WindSpeedAvgMPH,GustSpeedMaxMPH,PrecipitationSumIn
2013-1-1,47,45,40,43,33,18,91,66,38,30.01,29.94,6,3,21,0.19
2013-1-2,43,39,37,36,35,32,96,84,68,30.04,29.95,1,0,6,0.18
2013-1-3,37,33,28,36,30,21,97,90,75,30.13,30.00,4,1,13,0.01
2013-1-4,39,30,26,21,17,12,75,58,34,30.19,30.10,7,3,24,0.01
2013-1-5,48,37,26,26,17,2,68,48,18,30.23,30.11,11,2,23,0.00
2013-1-6,48,40,33,37,32,26,89,74,55,30.11,29.97,5,2,17,0.01
2013-1-7,45,35,28,28,25,22,81,67,46,30.27,30.07,5,2,17,0.00
2013-1-8,49,39,31,42,32,23,92,76,59,30.30,30.22,4,0,9,0.00
2013-1-9,56,52,44,52,49,42,97,89,82,30.38,30.28,4,2,17,0.00
2013-1-10,57,52,45,52,49,38,94,88,76,30.43,30.29,4,1,10,0.00
2013-1-11,56,47,40,55,46,39,98,97,86,30.29,30.10,4,1,13,0.38
2013-1-12,67,59,55,59,56,53,98,91,72,30.14,30.08,6,2,18,0.02
2013-1-13,66,58,55,56,54,52,94,85,70,30.10,30.02,7,3,18,0.00
2013-1-14,58,57,56,56,56,55,98,97,93,30.08,30.04,6,2,13,0.48
2013-1-15,48,43,40,47,42,39,98,98,98,30.10,30.02,4,2,8,1.41
2013-1-16,52,51,49,49,48,47,95,91,88,29.97,29.94,3,1,9,0.92
2013-1-17,51,43,32,49,42,31,97,96,91,30.03,29.76,11,3,28,1.86
2013-1-18,34,33,33,25,24,23,69,68,67,30.35,30.32,3,2,5,0.01
2013-1-19,51,39,29,29,23,14,77,55,22,30.32,30.06,5,2,16,0.01
2013-1-20,50,43,38,32,24,11,65,48,27,30.06,29.99,7,2,22,0.00
2013-1-21,46,38,26,28,21,11,64,49,35,30.02,29.87,7,3,28,0.00
2013-1-22,27,22,15,11,2,-9,62,43,21,30.05,29.85,6,3,26,0.00
2013-1-23,38,29,19,24,16,2,68,58,46,30.14,29.92,6,2,19,0.00
2013-1-24,38,31,17,30,14,4,73,52,32,30.24,29.85,10,4,32,0.00
2013-1-25,39,24,15,37,18,3,94,78,57,30.26,29.93,6,1,18,0.09
2013-1-26,43,36,30,33,20,9,89,57,30,30.20,29.95,7,3,24,0.09
2013-1-27,35,29,22,28,24,17,93,82,54,30.34,30.20,3,0,6,0.02
2013-1-28,60,46,31,48,40,28,90,78,61,30.29,30.16,6,2,15,0.03
2013-1-29,67,57,50,55,47,39,95,69,54,30.17,30.01,6,2,16,0.05
2013-1-30,58,56,55,57,55,53,97,95,92,30.01,29.53,10,6,33,2.02
2013-1-31,32,30,29,21,19,18,68,62,56,29.89,29.83,9,4,31,0.69
2013-2-1,36,24,16,28,10,0,83,57,39,30.14,29.79,8,3,30,0.00
2013-2-2,39,28,19,29,14,-12,94,58,19,30.14,29.89,6,2,20,0.00
2013-2-3,38,31,26,29,24,17,91,75,58,29.90,29.76,8,4,27,0.02
2013-2-4,48,36,24,25,21,16,73,55,38,29.99,29.87,5,2,17,0.02
2013-2-5,51,43,35,37,29,21,67,57,47,29.93,29.83,6,2,17,0.00
2013-2-6,54,45,37,35,24,17,73,47,24,30.15,29.92,6,1,22,0.00
2013-2-7,42,36,33,36,28,18,97,75,38,30.16,29.93,5,3,12,0.70
2013-2-8,44,38,32,43,34,23,97,87,62,29.99,29.84,7,2,19,0.42
2013-2-9,52,39,29,27,21,15,77,50,33,30.22,29.97,5,1,16,0.02
2013-2-10,45,40,35,40,29,19,96,69,45,30.23,30.07,4,1,10,0.33
2013-2-11,54,49,41,52,41,17,97,79,30,30.09,29.93,6,3,22,0.44
2013-2-12,52,42,35,34,23,15,93,48,30,30.02,29.87,5,2,19,0.11
2013-2-13,45,36,31,42,34,27,97,92,79,29.88,29.60,5,1,20,0.49
2013-2-14,49,37,27,32,25,19,88,66,30,29.96,29.78,9,2,17,0.01
2013-2-15,55,41,31,34,30,27,88,66,36,30.00,29.88,5,2,16,0.00
2013-2-16,33,27,18,28,19,10,89,71,57,29.89,29.72,5,2,19,0.00
2013-2-17,29,22,15,11,8,5,72,57,42,30.07,29.83,8,3,28,0.00
2013-2-18,47,36,25,24,19,9,60,49,37,30.19,30.06,6,2,13,0.00
2013-2-19,49,38,30,39,26,11,94,63,34,30.06,29.80,11,4,31,0.11
2013-2-20,42,32,25,14,1,-12,54,29,13,30.00,29.88,8,4,28,0.01
2013-2-21,54,40,27,31,10,-16,90,31,10,30.11,29.98,6,1,12,0.28
2013-2-22,38,33,30,37,32,29,97,96,89,30.14,29.99,2,0,5,0.63
2013-2-23,48,46,37,47,44,35,98,94,75,30.00,29.80,3,0,12,0.42
2013-2-24,52,43,35,38,27,16,84,56,30,29.96,29.80,6,2,16,0.02
2013-2-25,41,34,28,26,22,15,89,63,35,30.04,29.93,8,3,15,0.00
2013-2-26,36,30,27,35,29,25,97,95,91,29.94,29.54,8,2,13,0.00
2013-2-27,51,43,33,39,32,28,86,66,48,29.73,29.68,4,1,17,0.40
2013-2-28,34,30,26,30,24,21,86,78,67,29.80,29.64,6,2,20,0.03
2013-3-1,33,29,25,27,24,22,91,84,71,29.82,29.75,3,1,13,0.00
2013-3-2,37,29,22,26,23,16,92,79,59,29.79,29.74,5,1,18,0.01
2013-3-3,30,22,17,18,14,10,81,70,57,29.84,29.75,6,3,20,0.01
2013-3-4,49,33,19,25,12,0,73,47,13,29.98,29.83,5,2,15,0.00
2013-3-5,42,40,31,41,32,24,95,76,52,29.98,29.57,6,1,22,1.04
2013-3-6,31,25,21,26,21,17,90,82,74,29.96,29.54,9,5,32,0.79
2013-3-7,44,31,23,30,24,19,90,76,57,30.11,29.93,7,4,24,0.00
2013-3-8,51,38,26,23,17,2,80,45,24,30.19,30.08,7,2,17,0.00
2013-3-9,56,45,35,27,21,10,51,39,29,30.22,30.16,4,1,8,0.00
2013-3-10,59,49,41,34,30,25,58,48,37,30.21,30.11,5,1,9,0.00
2013-3-11,49,46,44,48,43,33,96,88,59,30.13,29.83,5,1,13,0.95
2013-3-12,49,44,37,48,36,25,96,76,44,29.94,29.75,7,3,20,1.31
2013-3-13,41,34,25,29,22,14,75,62,45,30.01,29.93,7,3,22,0.02
2013-3-14,42,30,20,18,14,10,73,52,31,30.13,30.01,5,2,17,0.00
2013-3-15,63,47,30,41,30,13,77,52,27,30.08,29.91,6,2,18,0.00
2013-3-16,71,60,52,47,43,40,65,53,36,29.91,29.78,10,4,24,0.00
2013-3-17,70,56,39,49,44,37,94,66,40,30.00,29.87,5,2,13,0.00
2013-3-18,43,35,32,42,34,31,97,96,94,30.01,29.83,6,2,12,0.54
2013-3-19,50,43,34,43,29,10,97,63,33,29.99,29.80,7,3,27,0.43
2013-3-20,48,37,30,26,12,8,86,36,22,29.99,29.77,4,2,15,0.00
2013-3-21,31,25,17,26,11,4,90,55,43,29.82,29.66,6,2,23,0.00
2013-3-22,46,33,23,26,14,5,61,46,22,29.93,29.82,5,1,17,0.00
2013-3-23,51,42,35,39,34,26,90,73,60,29.94,29.84,2,1,9,0.04
2013-3-24,40,36,34,37,35,33,96,95,85,29.86,29.57,11,4,24,0.65
2013-3-25,32,28,24,23,21,20,89,75,63,29.76,29.50,10,4,35,0.06
2013-3-26,34,27,22,28,21,17,88,79,66,30.04,29.74,7,2,28,0.10
2013-3-27,40,31,24,24,21,17,86,68,46,30.11,30.02,4,1,19,0.02
2013-3-28,46,35,26,25,20,17,75,56,32,30.18,30.09,3,1,17,0.02
2013-3-29,54,40,32,35,26,17,91,59,25,30.21,30.13,4,1,15,0.05
2013-3-30,57,46,37,43,38,34,93,77,56,30.14,30.02,3,1,14,0.68
2013-3-31,61,50,43,51,44,-100,96,84,58,30.02,29.83,6,1,21,0.49
2013-4-1,57,49,43,47,38,30,94,65,48,29.94,29.83,6,2,25,0.02
2013-4-2,52,42,33,31,22,12,73,47,22,30.07,29.92,7,2,22,0.00
2013-4-3,55,44,33,26,21,15,49,40,28,30.18,30.05,4,1,11,0.00
2013-4-4,43,33,29,31,26,16,96,77,42,30.18,29.89,8,3,14,0.03
2013-4-5,35,33,32,34,32,31,96,96,96,29.92,29.83,0,0,2,0.04
2013-4-6,62,55,43,36,33,30,59,45,35,30.16,30.10,5,1,9,0.07
2013-4-7,66,55,45,45,39,33,66,56,44,30.16,30.07,5,2,14,0.00
2013-4-8,72,60,50,51,47,42,75,62,46,30.13,30.06,5,2,13,0.00
2013-4-9,79,66,57,56,52,48,74,62,43,30.20,30.10,5,2,13,0.00
2013-4-10,82,69,59,58,53,50,73,59,36,30.12,29.99,7,2,17,0.00
2013-4-11,74,64,57,60,54,50,94,70,48,30.01,29.75,6,2,17,0.70
2013-4-12,66,59,48,60,48,35,95,72,39,29.85,29.67,8,3,23,2.54
2013-4-13,65,54,46,38,33,22,66,46,21,30.02,29.80,5,2,24,0.01
2013-4-14,67,58,50,47,37,29,85,47,33,30.08,29.96,6,2,13,0.00
2013-4-15,53,50,47,52,49,45,97,95,82,30.19,29.96,4,2,11,0.30
2013-4-16,72,60,50,59,54,49,97,82,59,30.27,30.18,4,1,9,0.02
2013-4-17,70,62,57,59,56,52,94,81,66,30.26,30.14,3,1,8,0.44
2013-4-18,69,62,57,59,55,52,93,80,63,30.15,29.99,3,0,12,0.01
2013-4-19,62,57,39,59,54,32,95,89,69,29.99,29.75,9,4,23,0.69
2013-4-20,55,44,32,33,27,23,78,54,32,30.20,29.87,4,2,16,0.02
2013-4-21,55,46,39,36,30,24,72,53,41,30.35,30.20,7,3,15,0.00
2013-4-22,56,45,37,37,34,28,88,67,47,30.32,30.16,6,4,13,0.00
2013-4-23,66,52,38,45,37,27,75,59,41,30.21,30.08,5,2,11,0.00
2013-4-24,67,57,49,54,48,43,90,73,56,30.11,30.01,6,2,18,0.03
2013-4-25,64,52,37,48,29,7,89,52,12,30.24,30.05,6,2,14,0.03
2013-4-26,64,53,44,37,31,21,55,42,34,30.35,30.24,5,1,10,0.00
2013-4-27,53,50,47,48,43,37,95,77,55,30.32,30.20,2,0,4,0.75
2013-4-28,48,46,44,47,44,-100,97,95,90,30.20,30.00,2,0,9,2.40
2013-4-29,64,55,48,56,52,47,97,88,68,30.04,29.96,2,0,9,0.73
2013-4-30,67,58,53,58,54,52,97,88,61,30.16,30.00,5,1,11,0.01
2013-5-1,59,53,49,54,50,48,97,92,76,30.25,30.15,7,4,15,0.00
2013-5-2,52,50,47,51,49,46,97,97,96,30.26,30.19,8,4,19,0.41
2013-5-3,50,48,45,49,47,44,97,97,97,30.20,30.07,9,5,20,0.36
2013-5-4,48,43,39,47,42,38,97,96,90,30.07,29.96,8,6,19,0.27
2013-5-5,47,42,39,46,41,38,98,97,97,30.00,29.82,11,8,25,5.26
2013-5-6,47,47,47,46,46,46,98,98,98,29.82,29.82,5,5,12,0.00
2013-5-11,70,62,56,56,54,50,85,76,60,29.91,29.86,3,1,12,0.01
2013-5-12,59,52,45,50,38,-100,86,61,36,30.01,29.87,5,2,17,0.01
2013-5-13,59,48,39,33,29,27,66,49,31,30.14,30.01,4,1,16,0.00
2013-5-14,72,56,41,49,38,27,70,52,34,30.19,30.07,3,1,12,0.00
2013-5-15,83,70,58,56,50,48,71,52,31,30.11,30.03,6,2,22,0.02
2013-5-16,77,63,62,56,31,-100,73,56,42,30.08,30.01,4,1,14,0.02
2013-5-17,78,67,61,61,51,-100,73,66,49,30.13,30.05,2,0,8,0.00
2013-5-18,63,61,58,61,58,53,96,91,72,30.14,30.08,1,0,5,1.32
2013-5-19,72,63,59,65,61,58,97,93,77,30.13,30.05,2,0,7,0.52
2013-5-20,76,66,59,68,62,57,97,87,71,30.15,30.06,2,0,8,0.02
2013-5-21,79,70,61,68,63,59,94,81,61,30.10,30.01,3,1,11,0.01
2013-5-22,78,65,57,67,61,55,96,88,68,30.06,29.95,3,0,14,0.68
2013-5-23,76,64,57,62,57,49,97,78,50,30.00,29.91,4,1,15,0.48
2013-5-24,63,56,49,50,44,34,89,63,41,30.18,29.91,5,2,19,0.05
2013-5-25,72,57,42,47,37,27,66,47,31,30.25,30.15,4,1,13,0.00
2013-5-26,70,60,51,50,44,38,76,56,41,30.24,30.16,3,1,12,0.01
2013-5-27,76,65,55,61,53,45,73,66,51,30.25,30.16,2,0,9,0.01
2013-5-28,79,68,60,65,58,54,84,72,55,30.23,30.16,4,1,14,0.00
2013-5-29,79,68,58,67,59,55,90,75,54,30.25,30.18,3,0,9,0.00
2013-5-30,77,66,60,65,59,56,91,78,62,30.29,30.21,3,0,9,0.00
2013-5-31,79,69,61,64,60,57,91,74,54,30.24,30.16,2,0,9,0.00
2013-6-1,80,70,63,65,60,58,89,73,54,30.17,30.08,4,1,13,0.00
2013-6-2,69,64,61,66,60,-100,96,93,80,30.11,29.97,3,1,15,1.80
2013-6-3,77,67,60,65,59,54,97,78,54,30.02,29.92,2,0,11,0.11
2013-6-4,72,65,58,64,60,56,96,84,70,30.13,30.01,3,0,9,0.02
2013-6-5,71,63,60,66,61,58,97,92,82,30.14,30.03,4,1,9,0.34
2013-6-6,71,65,61,68,63,60,97,94,85,30.05,29.86,1,0,6,0.52
2013-6-7,75,65,60,66,61,58,97,90,66,29.90,29.76,4,1,14,1.11
2013-6-8,77,66,58,66,61,56,96,84,58,30.14,29.90,2,0,9,0.56
2013-6-9,76,66,63,70,63,58,97,90,76,30.18,30.10,3,0,10,1.95
2013-6-10,72,65,59,65,61,56,97,87,64,30.10,29.96,5,1,17,2.08
2013-6-11,77,68,61,62,59,57,94,74,57,30.07,29.98,6,2,17,0.11
2013-6-12,85,74,66,68,64,59,81,71,54,30.10,30.01,3,1,13,0.02
2013-6-13,85,72,64,68,61,57,87,70,50,30.01,29.80,7,3,22,0.24
2013-6-14,73,64,56,60,54,47,90,69,49,30.09,29.89,5,1,16,0.03
2013-6-15,80,69,57,61,54,45,78,61,44,30.16,30.09,3,0,10,0.00
2013-6-16,81,70,62,66,60,56,83,72,51,30.16,30.09,4,1,9,0.00
2013-6-17,77,69,63,68,64,60,96,85,67,30.10,30.02,3,0,9,0.41
2013-6-18,75,66,61,68,63,59,96,89,74,30.03,29.88,4,1,18,0.12
2013-6-19,73,66,59,66,60,54,92,81,66,30.16,29.98,2,0,7,0.03
2013-6-20,73,64,61,67,61,58,96,89,76,30.26,30.16,1,0,5,0.03
2013-6-22,77,72,66,64,60,58,77,66,58,30.27,30.18,1,0,6,0.00
2013-6-23,77,67,62,68,62,58,95,85,64,30.26,30.19,1,0,4,1.04
2013-6-24,82,70,62,70,64,60,95,83,61,30.26,30.16,2,0,9,1.28
2013-6-25,81,70,64,73,65,62,96,86,62,30.21,30.10,3,0,11,0.16
2013-6-26,81,72,65,69,65,62,93,80,61,30.11,30.01,3,1,10,0.00
2013-6-27,80,70,61,69,64,58,91,82,69,30.03,29.87,5,2,17,0.16
2013-6-28,81,72,66,67,64,63,92,77,57,29.90,29.75,5,2,19,0.12
2013-6-29,79,71,63,64,59,56,86,68,49,29.81,29.74,4,0,10,0.18
2013-6-30,80,68,64,68,61,54,95,79,57,29.90,29.78,2,0,6,0.71
2013-7-1,75,66,61,69,64,59,96,91,77,30.02,29.88,2,0,8,2.33
2013-7-2,76,66,62,70,64,61,96,93,76,30.18,30.01,1,0,4,1.08
2013-7-3,71,65,59,69,63,58,97,96,92,30.23,30.16,5,0,18,4.74
2013-7-4,69,64,60,68,62,58,97,96,92,30.26,30.19,2,0,10,3.38
2013-7-5,78,67,63,71,65,62,97,93,74,30.28,30.21,3,0,6,1.00
2013-7-6,75,68,63,70,66,62,97,93,80,30.26,30.17,2,0,8,1.08
2013-7-7,78,69,65,71,66,64,97,90,74,30.21,30.15,2,0,8,0.72
2013-7-8,79,69,65,71,64,-100,95,87,72,30.25,30.18,2,0,8,0.02
2013-7-9,82,72,66,72,67,63,96,84,65,30.23,30.15,3,0,9,0.01
2013-7-10,83,68,64,73,62,-100,95,86,71,30.20,30.04,3,1,10,0.68
2013-7-11,75,69,64,69,66,62,96,89,77,30.05,29.97,3,0,8,0.03
2013-7-12,77,67,59,70,65,58,96,92,75,30.08,29.96,4,0,11,0.21
2013-7-13,66,63,59,65,62,58,98,97,96,30.16,30.06,4,2,11,0.27
2013-7-14,69,66,64,68,65,63,98,98,97,30.32,30.15,4,1,14,4.47
2013-7-15,73,67,65,71,66,64,98,95,81,30.38,30.32,3,0,8,0.31
2013-7-16,83,74,66,72,65,60,94,75,57,30.37,30.32,0,0,5,0.01
2013-7-17,83,72,66,74,65,60,95,79,63,30.34,30.24,1,0,9,0.23
2013-7-18,83,74,67,74,67,61,89,80,68,30.27,30.16,0,0,5,0.04
2013-7-19,83,72,67,73,68,64,93,84,67,30.20,30.09,1,0,7,0.00
2013-7-20,80,69,67,72,65,-100,95,88,66,30.12,30.03,2,0,9,0.04
2013-7-21,79,69,66,72,65,62,95,88,72,30.09,30.02,4,1,11,1.52
2013-7-22,81,70,64,72,65,61,94,84,65,30.07,29.93,4,1,12,0.24
2013-7-23,80,70,64,68,64,61,93,82,61,30.00,29.90,4,1,16,0.25
2013-7-24,82,73,67,68,64,61,88,74,58,29.95,29.86,3,1,15,0.01
2013-7-25,78,68,62,69,63,60,95,86,74,30.09,29.93,1,0,6,0.00
2013-7-26,80,68,62,69,64,58,94,86,68,30.15,30.09,1,0,5,0.00
2013-7-27,75,67,63,69,65,61,97,93,72,30.10,29.98,4,0,11,2.69
2013-9-6,63,63,63,59,59,58,87,87,86,30.17,30.17,0,0,1,0.00
2013-9-7,79,67,57,66,60,56,96,79,58,30.17,30.06,2,0,10,0.00
2013-9-8,77,69,64,66,60,-100,87,78,67,30.09,30.03,2,0,7,0.00
2013-9-9,78,70,66,70,64,60,88,81,71,30.21,30.09,2,0,5,0.00
2013-9-10,82,71,64,71,64,60,89,79,64,30.29,30.21,1,0,7,0.00
2013-9-11,80,71,66,70,65,59,89,81,68,30.28,30.17,2,0,8,0.00
2013-9-12,81,70,62,69,64,59,92,81,63,30.17,29.94,6,1,16,0.16
2013-9-13,72,64,55,61,55,45,92,74,57,29.95,29.88,4,1,15,0.19
2013-9-14,68,58,48,57,50,45,90,77,63,30.14,29.95,2,0,8,0.00
2013-9-15,69,58,54,62,53,-100,92,86,75,30.22,30.14,1,0,6,0.00
2013-9-16,76,66,59,62,58,54,91,74,46,30.20,30.14,2,0,9,0.00
2013-9-17,62,58,54,57,53,51,92,86,77,30.30,30.20,4,2,10,0.00
2013-9-18,57,53,51,52,51,49,94,91,88,30.27,30.20,2,0,4,0.00
2013-9-19,71,63,56,66,60,55,96,91,78,30.20,30.13,2,0,7,0.00
2013-9-20,77,67,61,67,62,59,94,84,67,30.14,30.00,2,0,8,0.00
2013-9-21,65,61,56,63,59,55,96,93,86,30.01,29.78,5,0,21,1.30
2013-9-22,70,59,52,60,52,-100,96,83,63,29.95,29.80,2,0,10,0.13
2013-9-23,65,58,52,59,54,49,94,87,75,30.08,29.95,1,0,5,0.01
2013-9-24,69,60,53,63,56,51,94,87,76,30.09,29.98,1,0,4,0.00
2013-9-25,58,57,54,57,56,53,97,96,93,29.98,29.91,1,0,6,1.07
2013-9-26,63,56,51,59,53,48,97,91,73,30.08,29.91,2,0,5,0.07
2013-9-27,68,59,51,60,54,48,93,84,71,30.19,30.08,2,0,6,0.01
2013-9-28,62,56,52,56,53,51,96,90,79,30.24,30.16,1,0,6,0.00
2013-9-29,65,56,50,58,51,-100,96,85,71,30.18,30.06,1,0,7,0.00
2013-9-30,66,58,52,58,54,50,96,88,74,30.10,30.04,1,0,4,0.00
2013-10-1,63,62,59,57,56,55,87,83,81,30.15,30.09,0,0,0,0.00
2013-10-2,73,64,58,62,57,52,85,79,63,30.19,30.12,1,0,7,0.00
2013-10-3,73,66,61,65,59,55,83,78,64,30.17,30.12,1,0,8,0.00
2013-10-4,77,67,61,65,60,56,88,80,65,30.20,30.13,2,0,9,0.00
2013-10-5,77,68,62,66,61,57,86,77,63,30.18,30.11,1,0,5,0.00
2013-10-6,76,66,60,64,60,57,90,82,65,30.12,29.96,0,0,5,0.00
2013-10-7,67,59,52,61,55,45,96,85,67,30.02,29.87,4,1,12,1.64
2013-10-8,59,52,48,51,45,39,88,79,67,30.19,30.01,6,2,15,0.05
2013-10-9,53,48,45,45,41,36,89,76,63,30.21,30.13,3,1,8,0.00
2013-10-10,70,58,48,55,49,42,82,71,55,30.14,30.03,3,0,9,0.00
2013-10-11,71,61,55,53,50,48,83,68,46,30.04,29.99,1,0,9,0.04
2013-10-12,67,60,56,57,52,47,91,75,63,30.12,30.01,2,0,10,0.04
2013-10-13,66,59,55,61,55,-100,97,91,80,30.22,30.11,4,0,9,0.15
2013-10-14,58,56,54,57,55,53,98,98,97,30.24,30.16,4,2,12,0.27
2013-10-15,55,53,50,54,52,49,98,98,97,30.19,30.08,4,1,11,0.04
2013-10-16,62,56,49,58,53,47,98,92,77,30.09,29.99,2,0,8,0.01
2013-10-17,64,58,54,61,56,51,97,93,86,30.00,29.88,3,1,11,0.13
2013-10-18,63,53,45,55,50,43,97,88,71,30.02,29.92,4,1,14,0.02
2013-10-19,60,53,47,53,48,41,98,82,56,29.98,29.86,3,0,14,0.02
2013-10-20,57,47,38,45,38,-100,85,74,48,30.06,29.92,5,1,14,0.00
2013-10-21,63,51,44,51,45,39,93,82,60,30.09,29.99,4,1,11,0.00
2013-10-22,63,55,50,50,45,42,92,72,51,30.00,29.82,4,1,12,0.00
2013-10-23,51,43,33,44,34,24,85,70,50,29.95,29.74,7,2,21,0.00
2013-10-24,48,38,32,33,29,24,80,69,53,30.09,29.93,6,2,21,0.00
2013-10-25,44,36,27,30,24,20,79,62,47,30.23,30.09,4,0,12,0.00
2013-10-26,52,39,28,40,28,21,79,64,33,30.23,30.00,4,1,16,0.00
2013-10-27,61,51,43,46,40,-100,83,69,53,30.09,29.99,5,1,16,0.00
2013-10-28,57,52,49,52,47,-100,92,86,76,30.22,30.08,2,0,9,0.09
2013-10-29,60,54,49,51,48,46,94,81,68,30.30,30.20,2,0,6,0.03
2013-10-30,69,59,53,54,51,48,90,76,54,30.26,30.17,3,1,11,0.00
2013-10-31,60,58,56,57,53,50,95,85,73,30.18,29.91,3,1,11,0.01
2013-11-1,70,59,52,57,53,40,96,81,35,29.83,29.72,6,2,21,0.17
2013-11-2,56,48,41,44,37,32,78,66,48,29.94,29.76,6,2,17,0.05
2013-11-3,53,43,37,35,30,-100,85,64,45,30.27,29.94,4,1,12,0.00
2013-11-4,49,41,35,30,28,26,76,61,43,30.39,30.27,5,3,15,0.00
2013-11-5,49,40,31,40,30,25,83,68,39,30.41,30.33,5,3,11,0.00
2013-11-6,58,50,43,51,47,40,97,90,72,30.34,30.11,3,0,8,0.00
2013-11-7,55,47,36,53,42,26,95,81,59,30.11,29.99,6,2,21,0.04
2013-11-8,49,40,32,26,19,13,71,46,25,30.19,30.06,5,1,14,0.01
2013-11-9,52,42,34,28,21,-100,55,45,33,30.23,30.12,4,1,12,0.00
2013-11-10,59,50,43,33,27,10,58,42,21,30.18,30.11,6,2,20,0.00
2013-11-11,54,47,42,27,22,6,51,37,22,30.24,30.08,5,1,13,0.00
2013-11-12,52,38,19,34,20,9,67,52,28,30.26,30.00,4,1,18,0.00
2013-11-13,40,29,17,15,11,3,68,47,27,30.34,30.24,3,0,12,0.00
2013-11-14,53,45,32,20,16,12,44,30,21,30.30,30.21,5,1,11,0.00
2013-11-15,52,46,41,46,44,13,97,90,31,30.22,30.12,2,0,10,0.14
2013-11-16,50,47,46,49,45,-100,98,97,96,30.20,30.13,1,0,5,0.10
2013-11-17,57,52,50,57,52,49,99,98,96,30.17,29.89,6,0,16,0.47
2013-11-18,59,52,40,57,39,25,99,64,35,29.97,29.85,5,2,19,0.16
2013-11-19,48,40,34,28,21,17,62,47,34,30.14,29.92,10,2,20,0.04
2013-11-20,41,34,28,27,24,22,83,67,49,30.32,30.14,10,6,18,0.00
2013-11-21,47,40,33,46,36,26,98,87,74,30.36,30.29,7,1,13,0.13
2013-11-22,62,54,47,56,52,46,98,93,79,30.32,30.11,4,1,14,0.17
2013-11-23,53,42,27,51,36,-100,94,80,58,30.11,30.03,6,2,19,0.01
2013-11-24,33,25,18,17,6,-1,66,45,26,30.29,30.08,3,1,11,0.01
2013-11-25,31,24,18,24,6,-2,90,46,37,30.32,30.16,2,0,6,0.00
2013-11-26,46,36,25,45,35,21,98,97,84,30.16,29.61,7,2,15,2.50
2013-11-27,41,27,18,40,23,10,98,85,67,30.01,29.53,9,3,24,0.26
2013-11-28,40,28,16,21,15,3,84,59,33,30.29,30.01,6,1,14,0.00
2013-11-29,49,38,30,24,19,4,67,47,30,30.43,30.29,8,2,15,0.00
2013-11-30,37,29,22,22,19,-100,87,67,52,30.44,30.23,6,2,13,0.00
2013-12-1,53,44,31,35,30,16,71,57,41,30.23,29.96,3,0,12,0.00
2013-12-2,52,43,38,37,33,30,80,68,55,29.96,29.79,3,0,6,0.00
2013-12-3,55,46,41,46,43,35,97,90,69,29.93,29.83,2,0,11,0.00
2013-12-4,55,50,46,53,49,45,98,97,90,30.06,29.93,3,0,12,0.00
2013-12-5,63,58,54,59,56,52,98,95,86,30.09,30.01,4,1,16,0.38
2013-12-6,65,62,53,60,59,51,98,90,81,30.04,29.97,8,4,20,0.65
2013-12-7,56,45,36,53,42,-100,97,89,79,30.27,29.99,7,2,16,0.01
2013-12-8,35,31,28,34,30,27,98,97,95,30.26,30.11,10,2,18,0.40
2013-12-9,55,47,30,55,46,29,99,96,83,30.11,29.98,6,2,17,0.42
2013-12-10,49,38,26,48,33,12,98,81,54,30.16,29.86,4,2,26,0.28
2013-12-11,46,35,26,20,10,4,58,37,24,30.26,30.16,9,2,19,0.02
2013-12-12,34,28,23,16,8,-2,64,44,23,30.24,30.12,7,2,19,0.00
2013-12-13,44,36,28,19,13,1,50,38,29,30.20,30.13,4,1,13,0.00
2013-12-14,43,34,30,42,28,-100,98,81,47,30.15,29.73,5,1,11,0.68
2013-12-15,44,33,26,43,30,22,98,87,75,29.98,29.70,5,2,21,0.01
2013-12-16,48,40,29,28,24,21,82,54,40,30.05,29.98,6,2,19,0.01
2013-12-17,54,44,32,31,27,20,68,53,36,30.05,29.88,7,3,23,0.00
2013-12-18,42,32,25,19,8,0,63,39,17,30.17,29.95,6,2,16,0.00
2013-12-19,60,51,40,24,22,9,39,32,24,30.20,30.14,7,1,15,0.00
2013-12-20,61,50,43,46,30,20,86,50,28,30.15,30.08,6,2,17,0.00
2013-12-21,59,54,50,58,52,-100,98,93,87,30.10,30.00,10,3,19,0.27
2013-12-22,60,56,53,59,55,52,99,96,89,30.05,29.97,8,2,19,2.75
2013-12-23,54,45,30,54,43,29,99,94,85,30.08,29.98,7,2,18,1.32
2013-12-24,30,25,19,29,19,13,95,79,61,30.23,30.05,6,3,19,0.04
2013-12-25,31,23,16,14,10,1,87,59,42,30.30,30.19,2,0,7,0.00
2013-12-26,43,36,25,23,17,12,61,47,36,30.22,30.14,5,1,18,0.00
2013-12-27,44,37,29,24,20,17,65,50,41,30.31,30.21,2,0,6,0.00
2013-12-28,49,42,37,38,27,-100,96,63,31,30.28,30.03,5,1,11,0.34
2013-12-29,47,40,33,44,37,30,98,89,76,30.03,29.75,6,3,20,0.97
2013-12-30,42,38,33,35,33,24,89,83,73,30.03,29.88,4,2,18,0.01
2013-12-31,37,32,28,24,16,12,70,51,37,30.23,30.01,5,2,24,0.00
2014-1-1,43,36,32,26,20,7,76,53,31,30.23,30.02,3,0,8,0.00
2014-1-2,45,35,15,44,30,9,96,84,62,30.02,29.62,5,2,20,0.22